createdAt,value
2023-04-16T00:01:10.746Z,94919.53
2023-04-16T00:03:38.730Z,94918.13
2023-04-16T00:06:07.167Z,94920.81
2023-04-16T00:08:35.729Z,94928.09
2023-04-16T00:11:03.723Z,94928.91
2023-04-16T00:13:31.488Z,94925.56
2023-04-16T00:16:00.725Z,94922.72
2023-04-16T00:18:28.640Z,94923.47
2023-04-16T00:20:56.466Z,94908.84
2023-04-16T00:23:25.252Z,94936.69
2023-04-16T00:25:53.763Z,94938.28
2023-04-16T00:28:21.666Z,94940.91
2023-04-16T00:30:49.501Z,94925.34
2023-04-16T00:33:18.865Z,94928.84
2023-04-16T00:35:47.296Z,94932.97
2023-04-16T00:38:15.825Z,94930.59
2023-04-16T00:40:43.740Z,94925.28
2023-04-16T00:43:11.595Z,94925.84
2023-04-16T00:45:39.633Z,94923.41
2023-04-16T00:48:07.632Z,94923.22
2023-04-16T00:50:36.921Z,94927.34
2023-04-16T00:53:04.943Z,94940.66
2023-04-16T00:55:32.783Z,94925.63
2023-04-16T00:58:01.121Z,94925.63
2023-04-16T01:00:28.943Z,94923.81
2023-04-16T01:02:57.163Z,94928.75
2023-04-16T01:05:25.010Z,94928.94
2023-04-16T01:07:54.930Z,94928.94
2023-04-16T01:10:22.946Z,94936.56
2023-04-16T01:12:50.728Z,94933.44
2023-04-16T01:15:18.663Z,94936.28
2023-04-16T01:17:47.126Z,94937.56
2023-04-16T01:20:15.056Z,94932.75
2023-04-16T01:22:44.210Z,94938.28
2023-04-16T01:25:15.688Z,94935.56
2023-04-16T01:27:43.672Z,94941.00
2023-04-16T01:30:11.971Z,94943.06
2023-04-16T01:32:52.733Z,94942.25
2023-04-16T01:35:20.669Z,94946.69
2023-04-16T01:37:50.952Z,94942.97
2023-04-16T01:40:18.776Z,94953.53
2023-04-16T01:42:46.700Z,94954.50
2023-04-16T01:45:14.697Z,94954.03
2023-04-16T01:47:42.718Z,94955.09
2023-04-16T01:50:12.238Z,94953.44
2023-04-16T01:52:40.588Z,94960.25
2023-04-16T01:55:10.607Z,94961.31
2023-04-16T01:57:38.732Z,94957.81
2023-04-16T02:00:08.412Z,94967.66
2023-04-16T02:02:46.653Z,94959.94
2023-04-16T02:05:19.826Z,94956.38
2023-04-16T02:07:47.853Z,94964.66
2023-04-16T02:10:17.132Z,94960.56
2023-04-16T02:12:45.589Z,94963.22
2023-04-16T02:15:16.359Z,94959.41
2023-04-16T02:17:46.409Z,94956.16
2023-04-16T02:20:14.713Z,94956.16
2023-04-16T02:22:52.918Z,94951.69
2023-04-16T02:25:24.439Z,94961.84
2023-04-16T02:27:54.718Z,94959.13
2023-04-16T02:30:32.124Z,94947.81
2023-04-16T02:32:59.945Z,94959.31
2023-04-16T02:35:28.126Z,94960.34
2023-04-16T02:37:55.921Z,94962.47
2023-04-16T02:40:25.153Z,94967.19
2023-04-16T02:42:53.053Z,94969.38
2023-04-16T02:45:21.080Z,94967.13
2023-04-16T02:47:48.956Z,94952.88
2023-04-16T02:50:16.997Z,94968.09
2023-04-16T02:52:44.830Z,94970.31
2023-04-16T02:55:13.148Z,94970.78
2023-04-16T02:57:43.958Z,94972.41
2023-04-16T03:00:12.811Z,94977.31
2023-04-16T03:02:40.858Z,94971.94
2023-04-16T03:05:09.564Z,94966.22
2023-04-16T03:07:39.178Z,94967.34
2023-04-16T03:10:08.448Z,94982.59
2023-04-16T03:12:36.257Z,94982.72
2023-04-16T03:15:10.468Z,94980.19
2023-04-16T03:17:38.400Z,94987.09
2023-04-16T03:20:07.782Z,94993.78
2023-04-16T03:22:35.627Z,94986.72
2023-04-16T03:25:03.582Z,94984.34
2023-04-16T03:27:32.097Z,94981.69
2023-04-16T03:29:59.926Z,94986.00
2023-04-16T03:32:30.327Z,94987.41
2023-04-16T03:34:58.457Z,94982.66
2023-04-16T03:37:26.569Z,94982.03
2023-04-16T03:39:54.353Z,94996.47
2023-04-16T03:42:22.798Z,94987.69
2023-04-16T03:44:50.961Z,94991.53
2023-04-16T03:47:19.504Z,94991.41
2023-04-16T03:49:49.891Z,94992.53
2023-04-16T03:52:18.422Z,94989.31
2023-04-16T03:54:46.263Z,94996.00
2023-04-16T03:57:24.343Z,94986.47
2023-04-16T03:59:55.437Z,94987.91
2023-04-16T04:02:24.419Z,94997.56
2023-04-16T04:04:54.233Z,94993.63
2023-04-16T04:07:22.141Z,94996.81
2023-04-16T04:09:49.930Z,95006.03
2023-04-16T04:12:17.862Z,95007.13
2023-04-16T04:14:47.236Z,95012.03
2023-04-16T04:17:15.530Z,95013.00
2023-04-16T04:19:54.376Z,95008.53
2023-04-16T04:22:30.723Z,95013.94
2023-04-16T04:24:58.603Z,95013.19
2023-04-16T04:27:28.533Z,95012.06
2023-04-16T04:29:56.293Z,95013.31
2023-04-16T04:32:24.156Z,95020.00
2023-04-16T04:34:51.993Z,95016.50
2023-04-16T04:37:19.832Z,95010.75
2023-04-16T04:39:49.009Z,95026.34
2023-04-16T04:42:18.935Z,95015.06
2023-04-16T04:44:47.298Z,95020.00
2023-04-16T04:47:15.993Z,95017.28
2023-04-16T04:49:43.762Z,95020.31
2023-04-16T04:52:11.997Z,95018.41
2023-04-16T04:54:41.666Z,95019.38
2023-04-16T04:57:11.100Z,95019.34
2023-04-16T04:59:38.920Z,95029.53
2023-04-16T05:02:06.839Z,95029.84
2023-04-16T05:04:34.618Z,95032.53
2023-04-16T05:07:02.713Z,95034.59
2023-04-16T05:09:30.862Z,95034.88
2023-04-16T05:11:58.726Z,95030.28
2023-04-16T05:14:27.940Z,95034.41
2023-04-16T05:16:56.376Z,95042.38
2023-04-16T05:19:24.289Z,95040.09
2023-04-16T05:21:52.236Z,95054.72
2023-04-16T05:24:20.849Z,95053.75
2023-04-16T05:26:48.715Z,95055.03
2023-04-16T05:29:16.534Z,95058.56
2023-04-16T05:31:45.876Z,95060.66
2023-04-16T05:34:13.624Z,95065.72
2023-04-16T05:36:41.458Z,95063.19
2023-04-16T05:39:09.536Z,95062.03
2023-04-16T05:41:37.533Z,95064.25
2023-04-16T05:44:05.692Z,95073.47
2023-04-16T05:46:33.623Z,95066.63
2023-04-16T05:49:02.957Z,95072.66
2023-04-16T05:51:32.092Z,95077.56
2023-04-16T05:53:59.932Z,95071.38
2023-04-16T05:56:27.910Z,95074.63
2023-04-16T05:58:55.683Z,95091.38
2023-04-16T06:01:23.644Z,95085.59
2023-04-16T06:03:51.506Z,95089.13
2023-04-16T06:06:20.738Z,95089.72
2023-04-16T06:08:48.541Z,95094.22
2023-04-16T06:11:16.372Z,95093.31
2023-04-16T06:13:44.194Z,95090.06
2023-04-16T06:16:12.001Z,95104.84
2023-04-16T06:18:39.811Z,95103.72
2023-04-16T06:21:07.711Z,95092.69
2023-04-16T06:23:36.976Z,95098.53
2023-04-16T06:26:05.549Z,95086.78
2023-04-16T06:28:33.315Z,95099.00
2023-04-16T06:31:01.285Z,95100.28
2023-04-16T06:33:29.253Z,95104.00
2023-04-16T06:35:57.007Z,95106.34
2023-04-16T06:38:24.883Z,95082.41
2023-04-16T06:40:54.202Z,95106.66
2023-04-16T06:43:22.170Z,95110.38
2023-04-16T06:45:50.056Z,95104.66
2023-04-16T06:48:17.937Z,95113.88
2023-04-16T06:50:45.760Z,95109.69
2023-04-16T06:53:13.672Z,95121.41
2023-04-16T06:55:41.438Z,95129.63
2023-04-16T06:58:10.557Z,95132.06
2023-04-16T07:00:39.455Z,95133.97
2023-04-16T07:03:09.264Z,95139.19
2023-04-16T07:05:37.160Z,95136.50
2023-04-16T07:08:05.169Z,95141.25
2023-04-16T07:10:33.041Z,95140.34
2023-04-16T07:13:01.605Z,95142.09
2023-04-16T07:15:30.743Z,95134.44
2023-04-16T07:17:58.558Z,95135.50
2023-04-16T07:20:26.489Z,95128.75
2023-04-16T07:22:54.389Z,95142.25
2023-04-16T07:25:22.371Z,95139.03
2023-04-16T07:27:50.163Z,95143.16
2023-04-16T07:30:18.353Z,95150.03
2023-04-16T07:32:47.602Z,95147.78
2023-04-16T07:35:15.811Z,95141.28
2023-04-16T07:37:43.599Z,95155.16
2023-04-16T07:40:12.008Z,95139.41
2023-04-16T07:42:39.819Z,95156.94
2023-04-16T07:45:08.610Z,95153.78
2023-04-16T07:47:36.558Z,95158.09
2023-04-16T07:50:06.980Z,95156.69
2023-04-16T07:52:34.869Z,95155.94
2023-04-16T07:55:02.727Z,95154.00
2023-04-16T07:57:30.496Z,95166.22
2023-04-16T07:59:58.678Z,95161.66
2023-04-16T08:02:27.474Z,95170.53
2023-04-16T08:04:55.605Z,95173.94
2023-04-16T08:07:24.949Z,95178.28
2023-04-16T08:09:53.939Z,95169.09
2023-04-16T08:12:22.399Z,95169.75
2023-04-16T08:14:50.482Z,95175.63
2023-04-16T08:17:18.614Z,95164.06
2023-04-16T08:19:46.462Z,95168.41
2023-04-16T08:22:14.760Z,95185.53
2023-04-16T08:24:43.938Z,95177.75
2023-04-16T08:27:19.051Z,95182.06
2023-04-16T08:29:48.282Z,95198.97
2023-04-16T08:32:16.296Z,95195.19
2023-04-16T08:34:44.146Z,95200.13
2023-04-16T08:37:12.041Z,95204.66
2023-04-16T08:39:39.995Z,95200.13
2023-04-16T08:42:19.964Z,95196.50
2023-04-16T08:44:49.971Z,95202.16
2023-04-16T08:47:17.894Z,95199.06
2023-04-16T08:49:46.477Z,95199.41
2023-04-16T08:52:19.518Z,95199.72
2023-04-16T08:54:56.762Z,95206.00
2023-04-16T08:57:34.739Z,95208.16
2023-04-16T09:00:32.011Z,95206.75
2023-04-16T09:03:00.338Z,95206.41
2023-04-16T09:05:30.534Z,95203.44
2023-04-16T09:07:58.372Z,95216.47
2023-04-16T09:10:27.240Z,95216.38
2023-04-16T09:12:58.555Z,95225.91
2023-04-16T09:15:27.284Z,95222.53
2023-04-16T09:17:56.517Z,95217.19
2023-04-16T09:20:24.941Z,95221.38
2023-04-16T09:22:52.929Z,95229.44
2023-04-16T09:25:23.553Z,95221.13
2023-04-16T09:27:51.825Z,95232.50
2023-04-16T09:30:23.029Z,95220.06
2023-04-16T09:32:51.640Z,95216.69
2023-04-16T09:35:20.455Z,95226.66
2023-04-16T09:37:57.767Z,95216.59
2023-04-16T09:40:27.447Z,95221.03
2023-04-16T09:42:58.304Z,95221.75
2023-04-16T09:45:32.004Z,95217.97
2023-04-16T09:48:04.994Z,95227.06
2023-04-16T09:50:32.954Z,95229.13
2023-04-16T09:53:03.471Z,95228.06
2023-04-16T09:55:31.442Z,95231.22
2023-04-16T09:58:05.752Z,95233.00
2023-04-16T10:00:35.060Z,95231.00
2023-04-16T10:03:11.170Z,95234.13
2023-04-16T10:05:39.040Z,95243.03
2023-04-16T10:08:15.444Z,95247.47
2023-04-16T10:10:43.435Z,95239.84
2023-04-16T10:13:12.878Z,95243.72
2023-04-16T10:15:42.610Z,95253.59
2023-04-16T10:18:10.924Z,95243.66
2023-04-16T10:20:38.862Z,95250.66
2023-04-16T10:23:06.861Z,95251.56
2023-04-16T10:25:35.370Z,95247.56
2023-04-16T10:28:04.416Z,95243.31
2023-04-16T10:30:32.372Z,95248.38
2023-04-16T10:33:03.601Z,95248.72
2023-04-16T10:35:31.592Z,95248.97
2023-04-16T10:38:15.587Z,95257.19
2023-04-16T10:40:46.043Z,95247.66
2023-04-16T10:43:19.009Z,95249.75
2023-04-16T10:45:49.293Z,95245.78
2023-04-16T10:48:19.881Z,95249.19
2023-04-16T10:50:56.777Z,95247.19
2023-04-16T10:53:26.730Z,95250.66
2023-04-16T10:56:12.681Z,95257.50
2023-04-16T10:58:40.939Z,95244.09
2023-04-16T11:01:12.970Z,95251.28
2023-04-16T11:03:48.230Z,95252.06
2023-04-16T11:06:17.735Z,95249.78
2023-04-16T11:08:54.399Z,95245.00
2023-04-16T11:11:24.242Z,95249.91
2023-04-16T11:13:56.646Z,95260.72
2023-04-16T11:16:26.983Z,95261.41
2023-04-16T11:18:57.191Z,95255.53
2023-04-16T11:21:25.667Z,95259.50
2023-04-16T11:23:54.271Z,95256.97
2023-04-16T11:26:25.060Z,95257.34
2023-04-16T11:28:53.194Z,95269.56
2023-04-16T11:31:21.144Z,95265.00
2023-04-16T11:33:49.023Z,95263.47
2023-04-16T11:36:18.304Z,95263.09
2023-04-16T11:38:46.503Z,95264.19
2023-04-16T11:41:21.769Z,95262.41
2023-04-16T11:43:49.651Z,95262.19
2023-04-16T11:46:26.746Z,95270.81
2023-04-16T11:48:56.439Z,95274.38
2023-04-16T11:51:25.805Z,95266.75
2023-04-16T11:53:54.990Z,95269.91
2023-04-16T11:56:29.415Z,95283.38
2023-04-16T11:59:09.035Z,95277.63
2023-04-16T12:01:39.408Z,95270.88
2023-04-16T12:04:08.251Z,95282.16
2023-04-16T12:06:37.815Z,95278.69
2023-04-16T12:09:23.769Z,95268.94
2023-04-16T12:11:51.671Z,95280.00
2023-04-16T12:14:19.463Z,95290.13
2023-04-16T12:16:47.646Z,95282.56
2023-04-16T12:19:16.333Z,95275.16
2023-04-16T12:21:47.160Z,95280.53
2023-04-16T12:24:16.805Z,95274.09
2023-04-16T12:26:46.554Z,95286.72
2023-04-16T12:29:19.508Z,95278.06
2023-04-16T12:31:48.038Z,95287.41
2023-04-16T12:34:17.249Z,95279.88
2023-04-16T12:36:47.871Z,95284.06
2023-04-16T12:39:16.911Z,95283.78
2023-04-16T12:41:45.051Z,95274.47
2023-04-16T12:44:17.851Z,95279.88
2023-04-16T12:46:46.445Z,95282.34
2023-04-16T12:49:14.419Z,95282.41
2023-04-16T12:51:42.251Z,95283.03
2023-04-16T12:54:11.369Z,95276.50
2023-04-16T12:56:39.251Z,95284.16
2023-04-16T12:59:09.528Z,95275.03
2023-04-16T13:01:37.531Z,95276.63
2023-04-16T13:04:05.909Z,95276.88
2023-04-16T13:06:34.125Z,95280.28
2023-04-16T13:09:01.996Z,95276.66
2023-04-16T13:11:33.483Z,95290.69
2023-04-16T13:14:01.320Z,95278.53
2023-04-16T13:16:29.247Z,95282.41
2023-04-16T13:18:57.092Z,95279.59
2023-04-16T13:21:25.013Z,95291.38
2023-04-16T13:23:53.981Z,95287.59
2023-04-16T13:26:22.062Z,95279.47
2023-04-16T13:28:51.317Z,95285.47
2023-04-16T13:31:22.049Z,95286.06
2023-04-16T13:33:50.097Z,95288.72
2023-04-16T13:36:17.929Z,95290.09
2023-04-16T13:38:45.776Z,95298.69
2023-04-16T13:41:13.659Z,95286.00
2023-04-16T13:43:41.449Z,95296.13
2023-04-16T13:46:10.668Z,95294.13
2023-04-16T13:48:38.442Z,95302.41
2023-04-16T13:51:06.326Z,95296.69
2023-04-16T13:53:36.146Z,95290.81
2023-04-16T13:56:04.735Z,95292.34
2023-04-16T13:58:32.486Z,95296.28
2023-04-16T14:01:00.496Z,95299.22
2023-04-16T14:03:29.735Z,95296.63
2023-04-16T14:05:57.776Z,95293.13
2023-04-16T14:08:25.612Z,95295.69
2023-04-16T14:10:55.640Z,95296.31
2023-04-16T14:13:23.627Z,95295.50
2023-04-16T14:15:51.456Z,95298.97
2023-04-16T14:18:19.210Z,95292.66
2023-04-16T14:20:48.387Z,95292.53
2023-04-16T14:23:16.251Z,95292.09
2023-04-16T14:25:43.988Z,95293.94
2023-04-16T14:28:13.064Z,95299.59
2023-04-16T14:30:42.868Z,95299.34
2023-04-16T14:33:10.648Z,95301.53
2023-04-16T14:35:38.477Z,95297.63
2023-04-16T14:38:07.737Z,95296.06
2023-04-16T14:40:35.809Z,95299.97
2023-04-16T14:43:03.658Z,95303.41
2023-04-16T14:45:32.497Z,95299.31
2023-04-16T14:48:00.472Z,95296.34
2023-04-16T14:50:28.659Z,95296.63
2023-04-16T14:52:56.867Z,95311.78
2023-04-16T14:55:26.124Z,95305.78
2023-04-16T14:57:53.909Z,95295.47
2023-04-16T15:00:22.006Z,95299.94
2023-04-16T15:02:49.872Z,95298.88
2023-04-16T15:05:17.816Z,95307.06
2023-04-16T15:07:45.708Z,95299.94
2023-04-16T15:10:14.139Z,95307.59
2023-04-16T15:12:43.297Z,95317.56
2023-04-16T15:15:11.813Z,95312.13
2023-04-16T15:17:39.798Z,95309.50
2023-04-16T15:20:09.411Z,95309.09
2023-04-16T15:22:37.314Z,95311.00
2023-04-16T15:25:05.570Z,95311.41
2023-04-16T15:27:33.434Z,95310.59
2023-04-16T15:30:02.575Z,95315.13
2023-04-16T15:32:30.404Z,95317.88
2023-04-16T15:34:58.226Z,95318.56
2023-04-16T15:37:26.061Z,95314.25
2023-04-16T15:39:53.888Z,95320.69
2023-04-16T15:42:21.679Z,95317.88
2023-04-16T15:44:49.502Z,95318.28
2023-04-16T15:47:18.692Z,95324.38
2023-04-16T15:49:46.433Z,95321.28
2023-04-16T15:52:14.566Z,95313.97
2023-04-16T15:54:43.804Z,95320.03
2023-04-16T15:57:11.563Z,95315.00
2023-04-16T15:59:39.399Z,95313.91
2023-04-16T16:02:07.671Z,95315.41
2023-04-16T16:04:36.993Z,95312.75
2023-04-16T16:07:05.137Z,95317.56
2023-04-16T16:09:33.000Z,95307.09
2023-04-16T16:12:00.765Z,95309.03
2023-04-16T16:14:28.577Z,95313.97
2023-04-16T16:16:56.353Z,95320.16
2023-04-16T16:19:24.125Z,95317.78
2023-04-16T16:21:53.298Z,95326.22
2023-04-16T16:24:21.163Z,95318.47
2023-04-16T16:26:48.919Z,95328.69
2023-04-16T16:29:16.698Z,95312.13
2023-04-16T16:31:44.543Z,95321.97
2023-04-16T16:34:19.918Z,95324.13
2023-04-16T16:36:50.732Z,95318.03
2023-04-16T16:39:24.256Z,95323.16
2023-04-16T16:41:52.733Z,95316.69
2023-04-16T16:44:20.658Z,95321.47
2023-04-16T16:46:48.797Z,95314.88
2023-04-16T16:49:17.120Z,95317.75
2023-04-16T16:51:46.546Z,95321.09
2023-04-16T16:54:14.787Z,95323.63
2023-04-16T16:56:43.915Z,95324.00
2023-04-16T16:59:11.938Z,95328.91
2023-04-16T17:01:42.443Z,95330.03
2023-04-16T17:04:10.380Z,95325.72
2023-04-16T17:06:38.850Z,95323.16
2023-04-16T17:09:07.127Z,95321.22
2023-04-16T17:11:35.157Z,95326.00
2023-04-16T17:14:04.357Z,95325.19
2023-04-16T17:16:32.412Z,95329.34
2023-04-16T17:19:01.273Z,95326.41
2023-04-16T17:21:29.074Z,95336.28
2023-04-16T17:23:58.095Z,95338.75
2023-04-16T17:26:25.962Z,95339.94
2023-04-16T17:28:54.215Z,95339.28
2023-04-16T17:31:24.999Z,95336.00
2023-04-16T17:33:54.630Z,95336.91
2023-04-16T17:36:23.173Z,95332.53
2023-04-16T17:38:51.279Z,95323.69
2023-04-16T17:41:19.591Z,95323.41
2023-04-16T17:43:49.475Z,95319.75
2023-04-16T17:46:17.487Z,95345.72
2023-04-16T17:48:48.736Z,95330.66
2023-04-16T17:51:17.087Z,95341.59
2023-04-16T17:53:45.036Z,95336.72
2023-04-16T17:56:13.867Z,95338.63
2023-04-16T17:58:41.699Z,95348.69
2023-04-16T18:01:09.531Z,95345.84
2023-04-16T18:03:38.690Z,95341.09
2023-04-16T18:06:08.066Z,95345.75
2023-04-16T18:08:36.904Z,95354.22
2023-04-16T18:11:07.641Z,95347.06
2023-04-16T18:13:35.645Z,95359.50
2023-04-16T18:16:03.579Z,95353.13
2023-04-16T18:18:31.488Z,95356.38
2023-04-16T18:20:59.304Z,95356.38
2023-04-16T18:23:28.457Z,95357.81
2023-04-16T18:25:56.290Z,95370.88
2023-04-16T18:28:24.650Z,95364.97
2023-04-16T18:30:52.507Z,95373.88
2023-04-16T18:33:48.626Z,95381.69
2023-04-16T18:36:08.433Z,95386.41
2023-04-16T18:38:46.398Z,95376.69
2023-04-16T18:41:21.374Z,95384.50
2023-04-16T18:43:49.192Z,95383.22
2023-04-16T18:46:17.714Z,95391.16
2023-04-16T18:48:46.565Z,95394.94
2023-04-16T18:51:16.107Z,95394.44
2023-04-16T18:53:45.994Z,95397.47
2023-04-16T18:56:13.873Z,95396.03
2023-04-16T18:58:41.851Z,95402.72
2023-04-16T19:01:12.936Z,95406.53
2023-04-16T19:03:41.185Z,95405.59
2023-04-16T19:06:09.211Z,95406.41
2023-04-16T19:08:37.034Z,95374.47
2023-04-16T19:11:06.203Z,95413.56
2023-04-16T19:13:33.981Z,95412.91
2023-04-16T19:16:02.990Z,95425.19
2023-04-16T19:18:30.904Z,95423.25
2023-04-16T19:21:02.349Z,95416.75
2023-04-16T19:23:30.358Z,95428.19
2023-04-16T19:25:58.247Z,95431.69
2023-04-16T19:28:27.435Z,95431.97
2023-04-16T19:30:55.961Z,95427.03
2023-04-16T19:33:23.928Z,95431.84
2023-04-16T19:35:51.794Z,95426.59
2023-04-16T19:38:19.546Z,95433.88
2023-04-16T19:40:47.796Z,95436.59
2023-04-16T19:43:15.780Z,95435.81
2023-04-16T19:45:46.035Z,95432.81
2023-04-16T19:48:14.413Z,95429.63
2023-04-16T19:50:42.802Z,95426.94
2023-04-16T19:53:10.827Z,95432.84
2023-04-16T19:55:40.573Z,95429.00
2023-04-16T19:58:08.384Z,95435.22
2023-04-16T20:00:37.995Z,95426.28
2023-04-16T20:03:07.279Z,95438.41
2023-04-16T20:05:35.116Z,95438.25
2023-04-16T20:08:02.993Z,95430.91
2023-04-16T20:10:31.484Z,95435.38
2023-04-16T20:12:59.508Z,95440.34
2023-04-16T20:15:27.458Z,95440.81
2023-04-16T20:17:56.240Z,95441.59
2023-04-16T20:20:25.603Z,95436.34
2023-04-16T20:22:53.461Z,95439.75
2023-04-16T20:25:21.688Z,95430.03
2023-04-16T20:27:49.499Z,95436.56
2023-04-16T20:30:17.384Z,95423.66
2023-04-16T20:32:45.259Z,95414.09
2023-04-16T20:35:15.791Z,95433.16
2023-04-16T20:37:44.895Z,95427.47
2023-04-16T20:40:13.902Z,95422.06
2023-04-16T20:42:46.422Z,95423.66
2023-04-16T20:45:14.425Z,95419.06
2023-04-16T20:47:43.445Z,95424.19
2023-04-16T20:50:12.126Z,95424.34
2023-04-16T20:52:39.940Z,95426.06
2023-04-16T20:55:10.122Z,95419.06
2023-04-16T20:57:37.897Z,95417.00
2023-04-16T21:03:27.199Z,95423.53
2023-04-16T21:05:56.538Z,95420.53
2023-04-16T21:08:25.459Z,95427.38
2023-04-16T21:10:54.627Z,95418.59
2023-04-16T21:13:22.493Z,95418.59
2023-04-16T21:15:50.410Z,95417.47
2023-04-16T21:18:18.604Z,95426.22
2023-04-16T21:20:46.448Z,95424.47
2023-04-16T21:23:14.248Z,95416.41
2023-04-16T21:25:42.057Z,95427.06
2023-04-16T21:28:11.385Z,95421.97
2023-04-16T21:30:39.315Z,95423.28
2023-04-16T21:33:07.633Z,95417.25
2023-04-16T21:35:35.491Z,95429.50
2023-04-16T21:38:03.279Z,95418.50
2023-04-16T21:40:31.276Z,95426.63
2023-04-16T21:42:59.073Z,95433.00
2023-04-16T21:45:30.049Z,95426.94
2023-04-16T21:47:58.449Z,95420.25
2023-04-16T21:50:26.300Z,95429.34
2023-04-16T21:52:54.821Z,95417.72
2023-04-16T21:55:22.709Z,95429.81
2023-04-16T21:57:50.591Z,95422.66
2023-04-16T22:00:19.070Z,95433.78
2023-04-16T22:02:48.343Z,95432.69
2023-04-16T22:05:16.343Z,95430.59
2023-04-16T22:07:44.215Z,95434.44
2023-04-16T22:10:14.917Z,95428.22
2023-04-16T22:12:44.676Z,95430.78
2023-04-16T22:15:13.813Z,95429.00
2023-04-16T22:17:41.942Z,95429.84
2023-04-16T22:20:13.420Z,95420.56
2023-04-16T22:22:43.019Z,95414.03
2023-04-16T22:25:11.823Z,95422.78
2023-04-16T22:27:39.766Z,95424.22
2023-04-16T22:30:09.353Z,95422.81
2023-04-16T22:32:37.249Z,95415.94
2023-04-16T22:35:05.666Z,95418.16
2023-04-16T22:37:34.841Z,95425.47
2023-04-16T22:40:02.763Z,95417.66
2023-04-16T22:42:30.563Z,95410.66
2023-04-16T22:44:58.514Z,95409.09
2023-04-16T22:47:26.298Z,95413.69
2023-04-16T22:49:54.231Z,95408.28
2023-04-16T22:52:22.077Z,95404.94
2023-04-16T22:54:51.257Z,95409.19
2023-04-16T22:57:21.125Z,95405.53
2023-04-16T22:59:49.019Z,95409.66
2023-04-16T23:02:17.353Z,95405.38
2023-04-16T23:04:45.550Z,95408.06
2023-04-16T23:07:13.357Z,95411.56
2023-04-16T23:09:41.228Z,95416.34
2023-04-16T23:12:10.462Z,95413.97
2023-04-16T23:14:38.286Z,95416.19
2023-04-16T23:17:06.262Z,95412.84
2023-04-16T23:19:34.076Z,95402.50
2023-04-16T23:22:01.926Z,95408.09
2023-04-16T23:24:29.715Z,95410.94
2023-04-16T23:26:57.938Z,95407.91
2023-04-16T23:29:27.096Z,95424.19
2023-04-16T23:31:54.947Z,95421.38
2023-04-16T23:34:22.769Z,95415.66
2023-04-16T23:36:50.584Z,95421.06
2023-04-16T23:39:18.312Z,95418.66
2023-04-16T23:41:46.092Z,95416.13
2023-04-16T23:44:13.902Z,95422.78
2023-04-16T23:46:43.166Z,95424.34
2023-04-16T23:49:11.346Z,95425.34
2023-04-16T23:51:39.344Z,95418.16
2023-04-16T23:54:07.232Z,95419.41
2023-04-16T23:56:35.027Z,95424.78
2023-04-16T23:59:02.813Z,95412.72
